sensor_id;sensor_type;location;lat;lon;timestamp;P1;durP1;ratioP1;P2;durP2;ratioP2
1925;SDS011;964;42.606;23.588;2023-06-14T00:01:49;31.10;;;20.83;;
1925;SDS011;964;42.606;23.588;2023-06-14T00:04:15;33.90;;;21.73;;
1925;SDS011;964;42.606;23.588;2023-06-14T00:06:43;31.30;;;21.23;;
1925;SDS011;964;42.606;23.588;2023-06-14T00:09:12;31.23;;;21.10;;
1925;SDS011;964;42.606;23.588;2023-06-14T00:11:38;34.17;;;24.40;;
1925;SDS011;964;42.606;23.588;2023-06-14T00:14:05;32.20;;;21.43;;
1925;SDS011;964;42.606;23.588;2023-06-14T00:16:32;34.87;;;22.23;;
1925;SDS011;964;42.606;23.588;2023-06-14T00:19:00;36.37;;;23.90;;
1925;SDS011;964;42.606;23.588;2023-06-14T01:03:38;33.93;;;21.67;;
1925;SDS011;964;42.606;23.588;2023-06-14T01:06:08;31.60;;;21.60;;
1925;SDS011;964;42.606;23.588;2023-06-14T01:08:54;32.03;;;19.30;;
1925;SDS011;964;42.606;23.588;2023-06-14T01:11:28;33.53;;;19.17;;
1925;SDS011;964;42.606;23.588;2023-06-14T01:13:59;30.20;;;18.73;;
1925;SDS011;964;42.606;23.588;2023-06-14T01:16:29;30.87;;;19.50;;
1925;SDS011;964;42.606;23.588;2023-06-14T01:18:58;34.67;;;20.70;;
1925;SDS011;964;42.606;23.588;2023-06-14T01:21:27;37.53;;;23.33;;
1925;SDS011;964;42.606;23.588;2023-06-14T01:23:56;34.23;;;22.07;;
1925;SDS011;964;42.606;23.588;2023-06-14T01:26:23;37.13;;;22.50;;
1925;SDS011;964;42.606;23.588;2023-06-14T01:28:51;34.60;;;21.90;;
1925;SDS011;964;42.606;23.588;2023-06-14T01:31:22;39.47;;;23.47;;
1925;SDS011;964;42.606;23.588;2023-06-14T01:33:50;37.80;;;23.00;;
1925;SDS011;964;42.606;23.588;2023-06-14T01:36:18;39.77;;;22.60;;
1925;SDS011;964;42.606;23.588;2023-06-14T01:38:46;33.43;;;20.70;;
1925;SDS011;964;42.606;23.588;2023-06-14T01:41:16;40.00;;;21.47;;
1925;SDS011;964;42.606;23.588;2023-06-14T01:43:44;35.13;;;20.70;;
1925;SDS011;964;42.606;23.588;2023-06-14T01:46:13;39.17;;;22.00;;
1925;SDS011;964;42.606;23.588;2023-06-14T01:48:41;41.80;;;23.83;;
1925;SDS011;964;42.606;23.588;2023-06-14T01:51:08;38.53;;;24.20;;
1925;SDS011;964;42.606;23.588;2023-06-14T01:53:35;36.90;;;22.70;;
1925;SDS011;964;42.606;23.588;2023-06-14T01:56:02;40.67;;;24.00;;
1925;SDS011;964;42.606;23.588;2023-06-14T01:58:30;36.47;;;20.53;;
1925;SDS011;964;42.606;23.588;2023-06-14T02:00:56;37.17;;;21.13;;
1925;SDS011;964;42.606;23.588;2023-06-14T02:03:25;43.80;;;23.57;;
1925;SDS011;964;42.606;23.588;2023-06-14T02:05:52;39.93;;;23.00;;
1925;SDS011;964;42.606;23.588;2023-06-14T02:08:20;44.13;;;23.40;;
1925;SDS011;964;42.606;23.588;2023-06-14T02:10:47;41.87;;;23.03;;
1925;SDS011;964;42.606;23.588;2023-06-14T02:13:14;34.93;;;21.40;;
1925;SDS011;964;42.606;23.588;2023-06-14T02:15:42;38.57;;;21.30;;
1925;SDS011;964;42.606;23.588;2023-06-14T02:18:10;40.13;;;22.30;;
1925;SDS011;964;42.606;23.588;2023-06-14T02:20:37;38.93;;;21.43;;
1925;SDS011;964;42.606;23.588;2023-06-14T02:23:03;36.13;;;20.93;;
1925;SDS011;964;42.606;23.588;2023-06-14T02:25:30;33.53;;;20.20;;
1925;SDS011;964;42.606;23.588;2023-06-14T02:27:57;38.67;;;22.13;;
1925;SDS011;964;42.606;23.588;2023-06-14T02:30:24;36.03;;;20.97;;
1925;SDS011;964;42.606;23.588;2023-06-14T02:32:52;35.40;;;21.27;;
1925;SDS011;964;42.606;23.588;2023-06-14T02:35:19;37.70;;;20.90;;
1925;SDS011;964;42.606;23.588;2023-06-14T02:37:47;35.60;;;21.10;;
1925;SDS011;964;42.606;23.588;2023-06-14T02:40:14;39.73;;;21.50;;
1925;SDS011;964;42.606;23.588;2023-06-14T02:42:40;40.27;;;21.93;;
1925;SDS011;964;42.606;23.588;2023-06-14T02:45:07;38.00;;;21.17;;
1925;SDS011;964;42.606;23.588;2023-06-14T02:47:34;35.53;;;20.73;;
1925;SDS011;964;42.606;23.588;2023-06-14T02:50:03;36.43;;;19.77;;
1925;SDS011;964;42.606;23.588;2023-06-14T02:52:30;36.40;;;21.10;;
1925;SDS011;964;42.606;23.588;2023-06-14T02:54:58;35.60;;;20.37;;
1925;SDS011;964;42.606;23.588;2023-06-14T02:57:24;37.10;;;21.60;;
1925;SDS011;964;42.606;23.588;2023-06-14T02:59:51;31.43;;;20.97;;
1925;SDS011;964;42.606;23.588;2023-06-14T03:02:18;37.13;;;21.27;;
1925;SDS011;964;42.606;23.588;2023-06-14T03:04:45;38.20;;;20.60;;
1925;SDS011;964;42.606;23.588;2023-06-14T03:07:13;37.30;;;20.87;;
1925;SDS011;964;42.606;23.588;2023-06-14T03:09:44;37.10;;;21.20;;
1925;SDS011;964;42.606;23.588;2023-06-14T03:12:11;40.40;;;21.27;;
1925;SDS011;964;42.606;23.588;2023-06-14T03:14:38;38.63;;;20.50;;
1925;SDS011;964;42.606;23.588;2023-06-14T03:17:04;36.90;;;20.73;;
1925;SDS011;964;42.606;23.588;2023-06-14T03:19:33;35.80;;;22.57;;
1925;SDS011;964;42.606;23.588;2023-06-14T03:22:00;38.73;;;21.07;;
1925;SDS011;964;42.606;23.588;2023-06-14T03:24:28;37.63;;;20.30;;
1925;SDS011;964;42.606;23.588;2023-06-14T03:26:57;38.30;;;20.90;;
1925;SDS011;964;42.606;23.588;2023-06-14T03:29:23;35.57;;;21.43;;
1925;SDS011;964;42.606;23.588;2023-06-14T03:31:57;37.70;;;22.17;;
1925;SDS011;964;42.606;23.588;2023-06-14T03:34:25;36.60;;;20.27;;
1925;SDS011;964;42.606;23.588;2023-06-14T03:36:52;39.63;;;20.97;;
1925;SDS011;964;42.606;23.588;2023-06-14T03:39:19;39.80;;;21.10;;
1925;SDS011;964;42.606;23.588;2023-06-14T03:41:47;39.70;;;22.60;;
1925;SDS011;964;42.606;23.588;2023-06-14T03:44:15;42.93;;;22.67;;
1925;SDS011;964;42.606;23.588;2023-06-14T03:46:42;42.37;;;23.30;;
1925;SDS011;964;42.606;23.588;2023-06-14T03:49:10;42.37;;;24.83;;
1925;SDS011;964;42.606;23.588;2023-06-14T03:51:37;46.33;;;22.40;;
1925;SDS011;964;42.606;23.588;2023-06-14T03:54:04;42.07;;;21.97;;
1925;SDS011;964;42.606;23.588;2023-06-14T03:56:31;42.00;;;22.50;;
1925;SDS011;964;42.606;23.588;2023-06-14T03:59:00;39.83;;;21.93;;
1925;SDS011;964;42.606;23.588;2023-06-14T04:01:27;40.57;;;22.73;;
1925;SDS011;964;42.606;23.588;2023-06-14T04:03:56;37.17;;;20.83;;
1925;SDS011;964;42.606;23.588;2023-06-14T04:06:23;37.77;;;22.03;;
1925;SDS011;964;42.606;23.588;2023-06-14T04:08:56;33.77;;;19.50;;
1925;SDS011;964;42.606;23.588;2023-06-14T04:11:29;29.57;;;19.93;;
1925;SDS011;964;42.606;23.588;2023-06-14T04:13:56;32.40;;;18.50;;
1925;SDS011;964;42.606;23.588;2023-06-14T04:16:24;31.40;;;18.70;;
1925;SDS011;964;42.606;23.588;2023-06-14T04:18:51;31.73;;;17.73;;
1925;SDS011;964;42.606;23.588;2023-06-14T04:21:18;30.40;;;17.60;;
1925;SDS011;964;42.606;23.588;2023-06-14T04:23:45;29.17;;;18.67;;
1925;SDS011;964;42.606;23.588;2023-06-14T04:26:12;32.17;;;18.43;;
1925;SDS011;964;42.606;23.588;2023-06-14T04:28:39;28.70;;;17.63;;
1925;SDS011;964;42.606;23.588;2023-06-14T04:31:06;26.53;;;16.90;;
1925;SDS011;964;42.606;23.588;2023-06-14T04:33:35;26.70;;;16.93;;
1925;SDS011;964;42.606;23.588;2023-06-14T04:36:08;27.50;;;17.20;;
1925;SDS011;964;42.606;23.588;2023-06-14T04:38:35;27.30;;;16.80;;
1925;SDS011;964;42.606;23.588;2023-06-14T04:41:02;28.07;;;18.03;;
1925;SDS011;964;42.606;23.588;2023-06-14T04:43:28;24.87;;;16.03;;
1925;SDS011;964;42.606;23.588;2023-06-14T04:45:56;31.17;;;17.40;;
1925;SDS011;964;42.606;23.588;2023-06-14T04:48:23;31.00;;;18.53;;
1925;SDS011;964;42.606;23.588;2023-06-14T04:50:51;37.40;;;19.47;;
1925;SDS011;964;42.606;23.588;2023-06-14T04:53:18;37.03;;;21.30;;
1925;SDS011;964;42.606;23.588;2023-06-14T04:55:48;31.80;;;19.37;;
1925;SDS011;964;42.606;23.588;2023-06-14T04:58:15;36.67;;;21.23;;
1925;SDS011;964;42.606;23.588;2023-06-14T05:00:42;42.70;;;20.50;;
1925;SDS011;964;42.606;23.588;2023-06-14T05:03:09;33.20;;;19.17;;
1925;SDS011;964;42.606;23.588;2023-06-14T05:05:38;28.67;;;17.67;;
1925;SDS011;964;42.606;23.588;2023-06-14T05:08:07;26.43;;;15.77;;
1925;SDS011;964;42.606;23.588;2023-06-14T05:10:34;25.83;;;16.20;;
1925;SDS011;964;42.606;23.588;2023-06-14T05:13:01;33.13;;;17.50;;
1925;SDS011;964;42.606;23.588;2023-06-14T05:15:28;23.17;;;15.30;;
1925;SDS011;964;42.606;23.588;2023-06-14T05:17:55;25.73;;;15.67;;
1925;SDS011;964;42.606;23.588;2023-06-14T05:20:22;25.00;;;15.80;;
1925;SDS011;964;42.606;23.588;2023-06-14T05:22:49;21.50;;;14.40;;
1925;SDS011;964;42.606;23.588;2023-06-14T05:25:19;23.67;;;14.97;;
1925;SDS011;964;42.606;23.588;2023-06-14T05:27:46;20.70;;;14.70;;
1925;SDS011;964;42.606;23.588;2023-06-14T05:30:13;20.57;;;13.67;;
1925;SDS011;964;42.606;23.588;2023-06-14T05:32:40;23.40;;;14.60;;
1925;SDS011;964;42.606;23.588;2023-06-14T05:35:08;22.40;;;15.07;;
1925;SDS011;964;42.606;23.588;2023-06-14T05:37:35;25.63;;;17.40;;
1925;SDS011;964;42.606;23.588;2023-06-14T05:40:02;24.20;;;15.50;;
1925;SDS011;964;42.606;23.588;2023-06-14T05:42:32;23.93;;;15.93;;
1925;SDS011;964;42.606;23.588;2023-06-14T05:44:59;24.00;;;16.67;;
1925;SDS011;964;42.606;23.588;2023-06-14T05:47:26;26.47;;;15.57;;
1925;SDS011;964;42.606;23.588;2023-06-14T05:49:53;25.87;;;15.93;;
1925;SDS011;964;42.606;23.588;2023-06-14T05:52:19;23.20;;;15.77;;
1925;SDS011;964;42.606;23.588;2023-06-14T05:54:46;25.43;;;15.87;;
1925;SDS011;964;42.606;23.588;2023-06-14T05:57:14;26.17;;;17.43;;
1925;SDS011;964;42.606;23.588;2023-06-14T05:59:42;30.10;;;16.30;;
1925;SDS011;964;42.606;23.588;2023-06-14T06:02:08;27.47;;;17.60;;
1925;SDS011;964;42.606;23.588;2023-06-14T06:04:35;23.63;;;16.40;;
1925;SDS011;964;42.606;23.588;2023-06-14T06:07:02;23.93;;;16.07;;
1925;SDS011;964;42.606;23.588;2023-06-14T06:09:29;19.47;;;14.97;;
1925;SDS011;964;42.606;23.588;2023-06-14T06:11:55;25.40;;;17.30;;
1925;SDS011;964;42.606;23.588;2023-06-14T06:14:22;21.70;;;15.47;;
1925;SDS011;964;42.606;23.588;2023-06-14T06:16:50;19.93;;;14.47;;
1925;SDS011;964;42.606;23.588;2023-06-14T06:19:17;20.97;;;13.80;;
1925;SDS011;964;42.606;23.588;2023-06-14T06:21:44;19.27;;;14.43;;
1925;SDS011;964;42.606;23.588;2023-06-14T06:24:11;18.30;;;13.60;;
1925;SDS011;964;42.606;23.588;2023-06-14T06:26:37;20.23;;;14.40;;
1925;SDS011;964;42.606;23.588;2023-06-14T06:29:04;22.33;;;14.07;;
1925;SDS011;964;42.606;23.588;2023-06-14T06:31:31;18.93;;;13.77;;
1925;SDS011;964;42.606;23.588;2023-06-14T06:33:59;18.37;;;13.20;;
1925;SDS011;964;42.606;23.588;2023-06-14T06:36:26;18.60;;;13.43;;
1925;SDS011;964;42.606;23.588;2023-06-14T06:38:52;20.43;;;13.67;;
1925;SDS011;964;42.606;23.588;2023-06-14T06:41:19;22.00;;;14.70;;
1925;SDS011;964;42.606;23.588;2023-06-14T06:43:46;25.53;;;15.87;;
1925;SDS011;964;42.606;23.588;2023-06-14T06:46:12;17.77;;;14.07;;
1925;SDS011;964;42.606;23.588;2023-06-14T06:48:39;19.33;;;14.37;;
1925;SDS011;964;42.606;23.588;2023-06-14T06:51:07;19.40;;;14.47;;
1925;SDS011;964;42.606;23.588;2023-06-14T06:53:34;17.07;;;13.00;;
1925;SDS011;964;42.606;23.588;2023-06-14T06:56:00;18.37;;;13.03;;
1925;SDS011;964;42.606;23.588;2023-06-14T06:58:27;18.00;;;13.20;;
1925;SDS011;964;42.606;23.588;2023-06-14T07:00:54;16.50;;;12.80;;
1925;SDS011;964;42.606;23.588;2023-06-14T07:03:21;16.60;;;12.50;;
1925;SDS011;964;42.606;23.588;2023-06-14T07:05:48;19.97;;;13.77;;
1925;SDS011;964;42.606;23.588;2023-06-14T07:08:16;19.23;;;13.80;;
1925;SDS011;964;42.606;23.588;2023-06-14T07:10:42;16.20;;;12.33;;
1925;SDS011;964;42.606;23.588;2023-06-14T07:13:09;19.00;;;13.27;;
1925;SDS011;964;42.606;23.588;2023-06-14T07:15:36;18.70;;;14.00;;
1925;SDS011;964;42.606;23.588;2023-06-14T07:18:03;14.03;;;12.30;;
1925;SDS011;964;42.606;23.588;2023-06-14T07:20:32;17.37;;;13.07;;
1925;SDS011;964;42.606;23.588;2023-06-14T07:22:58;18.90;;;13.60;;
1925;SDS011;964;42.606;23.588;2023-06-14T07:25:26;19.00;;;14.30;;
1925;SDS011;964;42.606;23.588;2023-06-14T07:27:53;19.10;;;14.90;;
1925;SDS011;964;42.606;23.588;2023-06-14T07:30:20;18.57;;;13.70;;
1925;SDS011;964;42.606;23.588;2023-06-14T07:32:50;17.80;;;13.07;;
1925;SDS011;964;42.606;23.588;2023-06-14T07:35:17;19.67;;;13.90;;
1925;SDS011;964;42.606;23.588;2023-06-14T07:37:44;15.40;;;12.20;;
1925;SDS011;964;42.606;23.588;2023-06-14T07:40:12;16.63;;;12.43;;
1925;SDS011;964;42.606;23.588;2023-06-14T07:42:41;16.80;;;12.90;;
1925;SDS011;964;42.606;23.588;2023-06-14T07:45:08;17.63;;;13.00;;
1925;SDS011;964;42.606;23.588;2023-06-14T07:47:35;15.23;;;12.60;;
1925;SDS011;964;42.606;23.588;2023-06-14T07:50:02;15.43;;;11.67;;
1925;SDS011;964;42.606;23.588;2023-06-14T07:52:29;13.70;;;11.70;;
1925;SDS011;964;42.606;23.588;2023-06-14T07:54:55;14.97;;;11.50;;
1925;SDS011;964;42.606;23.588;2023-06-14T07:57:23;17.70;;;13.37;;
1925;SDS011;964;42.606;23.588;2023-06-14T07:59:51;15.83;;;11.97;;
1925;SDS011;964;42.606;23.588;2023-06-14T08:02:18;15.00;;;11.80;;
1925;SDS011;964;42.606;23.588;2023-06-14T08:04:44;16.80;;;11.77;;
1925;SDS011;964;42.606;23.588;2023-06-14T08:07:11;17.00;;;12.67;;
1925;SDS011;964;42.606;23.588;2023-06-14T08:09:38;13.37;;;10.97;;
1925;SDS011;964;42.606;23.588;2023-06-14T08:12:05;14.63;;;10.97;;
1925;SDS011;964;42.606;23.588;2023-06-14T08:14:34;10.80;;;9.70;;
1925;SDS011;964;42.606;23.588;2023-06-14T08:17:03;12.70;;;10.63;;
1925;SDS011;964;42.606;23.588;2023-06-14T08:19:30;15.53;;;10.97;;
1925;SDS011;964;42.606;23.588;2023-06-14T08:21:56;12.70;;;10.30;;
1925;SDS011;964;42.606;23.588;2023-06-14T08:24:23;13.23;;;10.93;;
1925;SDS011;964;42.606;23.588;2023-06-14T08:26:50;12.60;;;10.03;;
1925;SDS011;964;42.606;23.588;2023-06-14T08:29:17;10.40;;;9.30;;
1925;SDS011;964;42.606;23.588;2023-06-14T08:31:43;10.27;;;8.90;;
1925;SDS011;964;42.606;23.588;2023-06-14T08:34:11;11.77;;;9.67;;
1925;SDS011;964;42.606;23.588;2023-06-14T08:36:38;10.40;;;9.40;;
1925;SDS011;964;42.606;23.588;2023-06-14T08:39:06;10.57;;;9.47;;
1925;SDS011;964;42.606;23.588;2023-06-14T08:41:34;9.00;;;8.10;;
1925;SDS011;964;42.606;23.588;2023-06-14T08:44:01;10.13;;;9.13;;
1925;SDS011;964;42.606;23.588;2023-06-14T08:46:29;10.43;;;9.00;;
1925;SDS011;964;42.606;23.588;2023-06-14T08:49:00;11.63;;;8.40;;
1925;SDS011;964;42.606;23.588;2023-06-14T08:51:29;10.30;;;9.20;;
1925;SDS011;964;42.606;23.588;2023-06-14T08:53:59;8.93;;;8.03;;
1925;SDS011;964;42.606;23.588;2023-06-14T08:56:27;11.47;;;10.20;;
1925;SDS011;964;42.606;23.588;2023-06-14T08:58:54;9.90;;;8.90;;
1925;SDS011;964;42.606;23.588;2023-06-14T09:01:22;10.97;;;9.77;;
1925;SDS011;964;42.606;23.588;2023-06-14T09:03:49;9.57;;;8.63;;
1925;SDS011;964;42.606;23.588;2023-06-14T09:06:16;8.57;;;7.67;;
1925;SDS011;964;42.606;23.588;2023-06-14T09:08:45;8.60;;;7.80;;
1925;SDS011;964;42.606;23.588;2023-06-14T09:11:14;8.13;;;7.33;;
1925;SDS011;964;42.606;23.588;2023-06-14T09:13:44;9.13;;;8.23;;
1925;SDS011;964;42.606;23.588;2023-06-14T09:16:11;9.07;;;7.70;;
1925;SDS011;964;42.606;23.588;2023-06-14T09:18:39;10.23;;;8.37;;
1925;SDS011;964;42.606;23.588;2023-06-14T09:21:08;11.17;;;8.70;;
1925;SDS011;964;42.606;23.588;2023-06-14T09:23:36;7.73;;;6.93;;
1925;SDS011;964;42.606;23.588;2023-06-14T09:26:08;7.87;;;7.17;;
1925;SDS011;964;42.606;23.588;2023-06-14T09:28:36;7.57;;;6.87;;
1925;SDS011;964;42.606;23.588;2023-06-14T09:31:07;7.23;;;6.53;;
1925;SDS011;964;42.606;23.588;2023-06-14T09:33:34;8.73;;;7.20;;
1925;SDS011;964;42.606;23.588;2023-06-14T09:36:02;7.10;;;6.40;;
1925;SDS011;964;42.606;23.588;2023-06-14T09:38:29;8.10;;;6.70;;
1925;SDS011;964;42.606;23.588;2023-06-14T09:40:56;6.63;;;5.93;;
1925;SDS011;964;42.606;23.588;2023-06-14T09:43:25;7.40;;;6.70;;
1925;SDS011;964;42.606;23.588;2023-06-14T09:45:53;6.60;;;6.00;;
1925;SDS011;964;42.606;23.588;2023-06-14T09:48:20;7.80;;;5.70;;
1925;SDS011;964;42.606;23.588;2023-06-14T09:50:47;6.47;;;5.90;;
1925;SDS011;964;42.606;23.588;2023-06-14T09:53:16;6.50;;;6.00;;
1925;SDS011;964;42.606;23.588;2023-06-14T09:55:49;7.40;;;6.70;;
1925;SDS011;964;42.606;23.588;2023-06-14T09:58:17;7.03;;;6.07;;
1925;SDS011;964;42.606;23.588;2023-06-14T10:00:50;6.77;;;6.10;;
1925;SDS011;964;42.606;23.588;2023-06-14T10:03:21;6.80;;;6.23;;
1925;SDS011;964;42.606;23.588;2023-06-14T10:05:55;7.33;;;5.93;;
1925;SDS011;964;42.606;23.588;2023-06-14T10:08:27;7.03;;;6.43;;
1925;SDS011;964;42.606;23.588;2023-06-14T10:10:58;9.13;;;6.10;;
1925;SDS011;964;42.606;23.588;2023-06-14T10:13:25;6.60;;;6.00;;
1925;SDS011;964;42.606;23.588;2023-06-14T10:15:57;8.33;;;5.50;;
1925;SDS011;964;42.606;23.588;2023-06-14T10:18:33;6.20;;;5.70;;
1925;SDS011;964;42.606;23.588;2023-06-14T10:21:08;6.00;;;5.40;;
1925;SDS011;964;42.606;23.588;2023-06-14T10:23:43;6.10;;;5.50;;
1925;SDS011;964;42.606;23.588;2023-06-14T10:26:17;5.80;;;5.40;;
1925;SDS011;964;42.606;23.588;2023-06-14T10:28:53;5.80;;;5.30;;
1925;SDS011;964;42.606;23.588;2023-06-14T10:31:24;6.03;;;5.53;;
1925;SDS011;964;42.606;23.588;2023-06-14T10:34:06;5.53;;;5.03;;
1925;SDS011;964;42.606;23.588;2023-06-14T10:36:33;6.20;;;5.70;;
1925;SDS011;964;42.606;23.588;2023-06-14T10:39:01;6.00;;;5.50;;
1925;SDS011;964;42.606;23.588;2023-06-14T10:41:31;6.10;;;5.50;;
1925;SDS011;964;42.606;23.588;2023-06-14T10:47:00;6.07;;;5.57;;
1925;SDS011;964;42.606;23.588;2023-06-14T10:49:37;5.73;;;5.23;;
1925;SDS011;964;42.606;23.588;2023-06-14T10:52:07;8.93;;;5.93;;
1925;SDS011;964;42.606;23.588;2023-06-14T10:55:01;9.67;;;6.53;;
1925;SDS011;964;42.606;23.588;2023-06-14T10:57:31;7.23;;;6.30;;
1925;SDS011;964;42.606;23.588;2023-06-14T10:59:58;6.37;;;5.77;;
1925;SDS011;964;42.606;23.588;2023-06-14T11:05:41;6.60;;;6.00;;
1925;SDS011;964;42.606;23.588;2023-06-14T11:08:17;6.20;;;5.60;;
1925;SDS011;964;42.606;23.588;2023-06-14T11:11:09;6.17;;;5.30;;
1925;SDS011;964;42.606;23.588;2023-06-14T11:13:37;5.50;;;5.10;;
1925;SDS011;964;42.606;23.588;2023-06-14T11:16:10;6.73;;;6.00;;
1925;SDS011;964;42.606;23.588;2023-06-14T11:18:39;6.30;;;5.70;;
1925;SDS011;964;42.606;23.588;2023-06-14T11:21:06;5.87;;;4.97;;
1925;SDS011;964;42.606;23.588;2023-06-14T11:23:33;5.30;;;4.90;;
1925;SDS011;964;42.606;23.588;2023-06-14T11:26:00;8.53;;;5.20;;
1925;SDS011;964;42.606;23.588;2023-06-14T11:28:35;5.83;;;5.37;;
1925;SDS011;964;42.606;23.588;2023-06-14T11:31:03;5.30;;;4.80;;
1925;SDS011;964;42.606;23.588;2023-06-14T11:33:29;7.00;;;5.80;;
1925;SDS011;964;42.606;23.588;2023-06-14T11:35:58;6.10;;;5.60;;
1925;SDS011;964;42.606;23.588;2023-06-14T11:38:24;6.53;;;5.10;;
1925;SDS011;964;42.606;23.588;2023-06-14T11:40:52;5.90;;;5.40;;
1925;SDS011;964;42.606;23.588;2023-06-14T11:43:18;6.80;;;6.20;;
1925;SDS011;964;42.606;23.588;2023-06-14T11:45:47;7.90;;;5.33;;
1925;SDS011;964;42.606;23.588;2023-06-14T11:48:14;6.57;;;5.90;;
1925;SDS011;964;42.606;23.588;2023-06-14T11:50:41;7.07;;;6.40;;
1925;SDS011;964;42.606;23.588;2023-06-14T11:53:09;6.60;;;5.70;;
1925;SDS011;964;42.606;23.588;2023-06-14T11:55:36;5.50;;;5.10;;
1925;SDS011;964;42.606;23.588;2023-06-14T11:58:04;6.70;;;6.10;;
1925;SDS011;964;42.606;23.588;2023-06-14T12:00:31;5.87;;;5.37;;
1925;SDS011;964;42.606;23.588;2023-06-14T12:02:58;6.60;;;6.07;;
1925;SDS011;964;42.606;23.588;2023-06-14T12:05:25;7.40;;;6.17;;
1925;SDS011;964;42.606;23.588;2023-06-14T12:07:57;7.87;;;6.70;;
1925;SDS011;964;42.606;23.588;2023-06-14T12:10:26;7.20;;;6.50;;
1925;SDS011;964;42.606;23.588;2023-06-14T12:12:56;6.53;;;5.93;;
1925;SDS011;964;42.606;23.588;2023-06-14T12:15:24;7.40;;;6.60;;
1925;SDS011;964;42.606;23.588;2023-06-14T12:17:53;8.70;;;7.27;;
1925;SDS011;964;42.606;23.588;2023-06-14T12:20:20;9.47;;;8.20;;
1925;SDS011;964;42.606;23.588;2023-06-14T12:22:50;9.33;;;7.30;;
1925;SDS011;964;42.606;23.588;2023-06-14T12:25:26;8.00;;;7.30;;
1925;SDS011;964;42.606;23.588;2023-06-14T12:27:54;9.63;;;7.33;;
1925;SDS011;964;42.606;23.588;2023-06-14T12:30:21;6.90;;;6.17;;
1925;SDS011;964;42.606;23.588;2023-06-14T12:32:48;8.83;;;7.33;;
1925;SDS011;964;42.606;23.588;2023-06-14T12:35:16;7.63;;;6.77;;
1925;SDS011;964;42.606;23.588;2023-06-14T12:37:43;6.63;;;6.00;;
1925;SDS011;964;42.606;23.588;2023-06-14T12:40:11;6.53;;;5.97;;
1925;SDS011;964;42.606;23.588;2023-06-14T12:42:39;6.20;;;5.60;;
1925;SDS011;964;42.606;23.588;2023-06-14T12:45:06;7.60;;;6.80;;
1925;SDS011;964;42.606;23.588;2023-06-14T12:47:33;7.60;;;6.67;;
1925;SDS011;964;42.606;23.588;2023-06-14T12:50:00;7.27;;;6.67;;
1925;SDS011;964;42.606;23.588;2023-06-14T12:52:27;8.10;;;7.30;;
1925;SDS011;964;42.606;23.588;2023-06-14T12:54:54;8.63;;;6.97;;
1925;SDS011;964;42.606;23.588;2023-06-14T12:57:20;7.70;;;6.93;;
1925;SDS011;964;42.606;23.588;2023-06-14T12:59:48;8.83;;;7.20;;
1925;SDS011;964;42.606;23.588;2023-06-14T13:02:15;6.90;;;6.30;;
1925;SDS011;964;42.606;23.588;2023-06-14T13:04:42;7.27;;;6.57;;
1925;SDS011;964;42.606;23.588;2023-06-14T13:07:10;8.07;;;7.27;;
1925;SDS011;964;42.606;23.588;2023-06-14T13:09:36;8.27;;;7.33;;
1925;SDS011;964;42.606;23.588;2023-06-14T13:12:03;7.87;;;7.10;;
1925;SDS011;964;42.606;23.588;2023-06-14T13:14:30;7.23;;;6.63;;
1925;SDS011;964;42.606;23.588;2023-06-14T13:16:59;8.33;;;7.37;;
1925;SDS011;964;42.606;23.588;2023-06-14T13:19:26;9.10;;;7.30;;
1925;SDS011;964;42.606;23.588;2023-06-14T13:21:52;7.27;;;6.60;;
1925;SDS011;964;42.606;23.588;2023-06-14T13:24:19;8.33;;;7.47;;
1925;SDS011;964;42.606;23.588;2023-06-14T13:26:45;8.03;;;7.33;;
1925;SDS011;964;42.606;23.588;2023-06-14T13:29:12;8.90;;;7.90;;
1925;SDS011;964;42.606;23.588;2023-06-14T13:31:39;8.30;;;7.50;;
1925;SDS011;964;42.606;23.588;2023-06-14T13:34:07;8.37;;;7.67;;
1925;SDS011;964;42.606;23.588;2023-06-14T13:36:34;8.73;;;7.83;;
1925;SDS011;964;42.606;23.588;2023-06-14T13:39:00;7.97;;;7.27;;
1925;SDS011;964;42.606;23.588;2023-06-14T13:41:28;8.60;;;7.80;;
1925;SDS011;964;42.606;23.588;2023-06-14T13:43:57;8.00;;;7.40;;
1925;SDS011;964;42.606;23.588;2023-06-14T13:46:25;8.50;;;7.70;;
1925;SDS011;964;42.606;23.588;2023-06-14T13:48:52;9.47;;;8.57;;
1925;SDS011;964;42.606;23.588;2023-06-14T13:51:20;8.77;;;7.53;;
1925;SDS011;964;42.606;23.588;2023-06-14T13:53:47;8.23;;;7.53;;
1925;SDS011;964;42.606;23.588;2023-06-14T13:56:15;8.80;;;7.90;;
1925;SDS011;964;42.606;23.588;2023-06-14T13:58:43;10.73;;;7.80;;
1925;SDS011;964;42.606;23.588;2023-06-14T14:01:10;8.50;;;7.70;;
1925;SDS011;964;42.606;23.588;2023-06-14T14:03:37;8.43;;;7.57;;
1925;SDS011;964;42.606;23.588;2023-06-14T14:06:04;11.37;;;9.50;;
1925;SDS011;964;42.606;23.588;2023-06-14T14:08:34;10.23;;;9.20;;
1925;SDS011;964;42.606;23.588;2023-06-14T14:11:01;10.30;;;9.30;;
1925;SDS011;964;42.606;23.588;2023-06-14T14:13:28;10.17;;;9.20;;
1925;SDS011;964;42.606;23.588;2023-06-14T14:15:55;9.97;;;8.97;;
1925;SDS011;964;42.606;23.588;2023-06-14T14:18:21;11.43;;;10.33;;
1925;SDS011;964;42.606;23.588;2023-06-14T14:20:48;10.53;;;9.50;;
1925;SDS011;964;42.606;23.588;2023-06-14T14:23:15;10.77;;;9.77;;
1925;SDS011;964;42.606;23.588;2023-06-14T14:25:43;10.10;;;8.57;;
1925;SDS011;964;42.606;23.588;2023-06-14T14:28:09;6.77;;;5.87;;
1925;SDS011;964;42.606;23.588;2023-06-14T14:30:36;6.10;;;5.50;;
1925;SDS011;964;42.606;23.588;2023-06-14T14:33:04;7.80;;;5.87;;
1925;SDS011;964;42.606;23.588;2023-06-14T14:35:32;5.27;;;4.77;;
1925;SDS011;964;42.606;23.588;2023-06-14T14:37:59;4.30;;;3.90;;
1925;SDS011;964;42.606;23.588;2023-06-14T14:40:26;6.13;;;4.27;;
1925;SDS011;964;42.606;23.588;2023-06-14T14:42:54;5.90;;;4.50;;
1925;SDS011;964;42.606;23.588;2023-06-14T14:45:20;5.30;;;4.50;;
1925;SDS011;964;42.606;23.588;2023-06-14T14:47:47;6.30;;;4.00;;
1925;SDS011;964;42.606;23.588;2023-06-14T14:50:13;11.30;;;5.20;;
1925;SDS011;964;42.606;23.588;2023-06-14T14:52:41;6.57;;;5.33;;
1925;SDS011;964;42.606;23.588;2023-06-14T14:55:08;5.60;;;5.00;;
1925;SDS011;964;42.606;23.588;2023-06-14T14:57:34;5.77;;;5.27;;
1925;SDS011;964;42.606;23.588;2023-06-14T15:00:03;6.70;;;5.63;;
1925;SDS011;964;42.606;23.588;2023-06-14T15:02:33;6.73;;;6.00;;
1925;SDS011;964;42.606;23.588;2023-06-14T15:04:59;6.73;;;6.03;;
1925;SDS011;964;42.606;23.588;2023-06-14T15:07:27;5.73;;;5.23;;
1925;SDS011;964;42.606;23.588;2023-06-14T15:09:54;7.40;;;5.37;;
1925;SDS011;964;42.606;23.588;2023-06-14T15:12:21;7.00;;;6.30;;
1925;SDS011;964;42.606;23.588;2023-06-14T15:14:49;5.97;;;5.37;;
1925;SDS011;964;42.606;23.588;2023-06-14T15:17:18;6.00;;;5.50;;
1925;SDS011;964;42.606;23.588;2023-06-14T15:19:45;5.73;;;5.23;;
1925;SDS011;964;42.606;23.588;2023-06-14T15:22:13;6.90;;;5.80;;
1925;SDS011;964;42.606;23.588;2023-06-14T15:24:40;5.90;;;5.23;;
1925;SDS011;964;42.606;23.588;2023-06-14T15:27:07;5.43;;;4.93;;
1925;SDS011;964;42.606;23.588;2023-06-14T15:29:35;5.47;;;4.83;;
1925;SDS011;964;42.606;23.588;2023-06-14T15:32:02;6.20;;;5.40;;
1925;SDS011;964;42.606;23.588;2023-06-14T15:34:32;5.40;;;4.90;;
1925;SDS011;964;42.606;23.588;2023-06-14T15:36:59;6.10;;;5.50;;
1925;SDS011;964;42.606;23.588;2023-06-14T15:39:27;6.60;;;5.57;;
1925;SDS011;964;42.606;23.588;2023-06-14T15:41:56;5.73;;;5.13;;
1925;SDS011;964;42.606;23.588;2023-06-14T15:44:23;8.77;;;5.90;;
1925;SDS011;964;42.606;23.588;2023-06-14T15:46:50;6.70;;;6.03;;
1925;SDS011;964;42.606;23.588;2023-06-14T15:49:16;6.10;;;5.53;;
1925;SDS011;964;42.606;23.588;2023-06-14T15:51:45;6.30;;;5.70;;
1925;SDS011;964;42.606;23.588;2023-06-14T15:54:12;6.83;;;6.13;;